createdAt,value
2018-06-28T02:23:39.327Z,16.40
2018-06-28T02:24:39.318Z,16.27
2018-06-28T02:26:32.262Z,16.25
2018-06-28T02:27:32.259Z,16.40
2018-06-28T02:29:25.167Z,16.31
2018-06-28T02:30:25.177Z,16.40
2018-06-28T02:32:18.122Z,16.49
2018-06-28T02:33:18.110Z,16.50
2018-06-28T02:35:11.032Z,16.45
2018-06-28T02:36:11.052Z,16.45
2018-06-28T02:38:03.985Z,16.45
2018-06-28T02:39:03.980Z,16.48
2018-06-28T02:40:56.921Z,16.42
2018-06-28T02:41:56.912Z,16.37
2018-06-28T02:43:49.832Z,16.34
2018-06-28T02:44:49.852Z,16.34
2018-06-28T02:46:42.794Z,16.31
2018-06-28T02:47:42.789Z,16.27
2018-06-28T02:49:35.714Z,16.26
2018-06-28T02:50:35.724Z,16.31
2018-06-28T02:52:28.676Z,16.16
2018-06-28T02:53:28.664Z,16.20
2018-06-28T02:55:21.589Z,16.26
2018-06-28T02:56:21.611Z,16.31
2018-06-28T02:58:14.558Z,16.26
2018-06-28T02:59:14.555Z,16.30
2018-06-28T03:01:07.489Z,16.30
2018-06-28T03:02:07.485Z,16.26
2018-06-28T03:04:00.410Z,16.23
2018-06-28T03:05:00.423Z,16.23
2018-06-28T03:06:53.380Z,16.20
2018-06-28T03:07:53.369Z,16.27
2018-06-28T03:09:46.295Z,16.25
2018-06-28T03:10:46.307Z,16.22
2018-06-28T03:12:39.251Z,16.22
2018-06-28T03:13:39.256Z,16.16
2018-06-28T03:15:32.175Z,16.18
2018-06-28T03:16:32.189Z,16.18
2018-06-28T03:18:25.136Z,16.15
2018-06-28T03:19:25.134Z,16.12
2018-06-28T03:21:18.078Z,16.03
2018-06-28T03:22:18.080Z,16.06
2018-06-28T03:24:10.999Z,16.12
2018-06-28T03:25:11.013Z,16.01
2018-06-28T03:27:03.960Z,16.04
2018-06-28T03:28:03.953Z,15.97
2018-06-28T03:29:56.880Z,15.96
2018-06-28T03:30:56.901Z,16.01
2018-06-28T03:32:49.840Z,16.01
2018-06-28T03:33:49.838Z,15.94
2018-06-28T03:35:42.765Z,15.93
2018-06-28T03:36:42.786Z,15.94
2018-06-28T03:38:35.728Z,15.96
2018-06-28T03:39:35.722Z,15.97
2018-06-28T03:41:28.671Z,15.94
2018-06-28T03:42:28.664Z,15.96
2018-06-28T03:44:21.588Z,15.93
2018-06-28T03:45:21.601Z,16.03
2018-06-28T03:47:14.551Z,15.97
2018-06-28T03:48:14.545Z,15.94
2018-06-28T03:50:07.478Z,16.00
2018-06-28T03:51:07.488Z,15.92
2018-06-28T03:53:00.434Z,15.94
2018-06-28T03:54:00.432Z,15.94
2018-06-28T03:55:53.358Z,16.03
2018-06-28T03:56:53.372Z,15.92
2018-06-28T03:58:46.323Z,16.03
2018-06-28T03:59:46.317Z,16.07
2018-06-28T04:01:39.266Z,16.11
2018-06-28T04:02:39.258Z,16.01
2018-06-28T04:04:32.190Z,16.06
2018-06-28T04:05:32.203Z,16.03
2018-06-28T04:07:25.150Z,16.07
2018-06-28T04:08:25.143Z,16.03
2018-06-28T04:10:18.066Z,16.15
2018-06-28T04:11:18.084Z,16.06
2018-06-28T04:13:11.032Z,16.15
2018-06-28T04:14:11.026Z,16.22
2018-06-28T04:16:03.957Z,16.16
2018-06-28T04:17:03.968Z,16.20
2018-06-28T04:18:56.914Z,16.27
2018-06-28T04:19:56.910Z,16.26
2018-06-28T04:21:49.861Z,16.20
2018-06-28T04:22:49.849Z,16.23
2018-06-28T04:24:42.783Z,16.30
2018-06-28T04:25:42.804Z,16.31
2018-06-28T04:27:35.743Z,16.30
2018-06-28T04:28:35.736Z,16.20
2018-06-28T04:30:28.664Z,16.27
2018-06-28T04:31:28.679Z,16.26
2018-06-28T04:33:21.703Z,16.34
2018-06-28T04:34:21.624Z,16.38
2018-06-28T04:36:14.555Z,16.38
2018-06-28T04:37:14.572Z,16.40
2018-06-28T04:39:07.519Z,16.41
2018-06-28T04:40:07.515Z,16.44
2018-06-28T04:42:00.465Z,16.48
2018-06-28T04:43:00.457Z,16.41
2018-06-28T04:44:53.385Z,16.49
2018-06-28T04:45:53.400Z,16.58
2018-06-28T04:47:46.352Z,16.60
2018-06-28T04:48:46.345Z,16.67
2018-06-28T04:50:39.271Z,16.73
2018-06-28T04:51:39.284Z,16.85
2018-06-28T04:53:32.227Z,16.86
2018-06-28T04:54:32.221Z,16.89
2018-06-28T04:56:25.156Z,16.93
2018-06-28T04:57:25.167Z,16.96
2018-06-28T04:59:18.116Z,17.08
2018-06-28T05:00:18.106Z,17.04
2018-06-28T05:02:11.058Z,17.04
2018-06-28T05:03:11.053Z,17.06
2018-06-28T05:05:03.978Z,17.08
2018-06-28T05:06:03.993Z,17.14
2018-06-28T05:07:56.940Z,17.20
2018-06-28T05:08:56.941Z,17.22
2018-06-28T05:10:49.862Z,17.25
2018-06-28T05:11:49.875Z,17.35
2018-06-28T05:13:42.825Z,17.46
2018-06-28T05:14:42.819Z,17.50
2018-06-28T05:16:35.745Z,17.59
2018-06-28T05:17:35.761Z,17.57
2018-06-28T05:19:28.708Z,17.59
2018-06-28T05:20:28.717Z,17.64
2018-06-28T05:22:21.649Z,17.78
2018-06-28T05:23:21.675Z,17.99
2018-06-28T05:25:15.090Z,19.20
2018-06-28T05:26:15.087Z,20.50
2018-06-28T05:28:08.036Z,23.15
2018-06-28T05:29:08.093Z,24.34
2018-06-28T05:31:00.958Z,25.74
2018-06-28T05:32:00.981Z,26.12
2018-06-28T05:33:53.937Z,26.94
2018-06-28T05:34:53.959Z,26.83
2018-06-28T05:36:46.862Z,27.66
2018-06-28T05:37:46.875Z,27.69
2018-06-28T05:39:39.839Z,27.46
2018-06-28T05:40:39.845Z,27.20
2018-06-28T05:42:32.798Z,26.99
2018-06-28T05:43:32.801Z,26.89
2018-06-28T05:45:25.751Z,27.50
2018-06-28T05:46:25.767Z,27.62
2018-06-28T05:48:18.732Z,27.85
2018-06-28T05:49:18.730Z,27.96
2018-06-28T05:51:11.675Z,28.36
2018-06-28T05:52:11.700Z,28.85
2018-06-28T05:54:04.664Z,28.77
2018-06-28T05:55:04.667Z,28.41
2018-06-28T05:56:57.624Z,27.42
2018-06-28T05:57:57.639Z,27.11
2018-06-28T05:59:50.607Z,27.92
2018-06-28T06:00:50.608Z,28.69
2018-06-28T06:02:43.581Z,29.18
2018-06-28T06:03:43.584Z,29.68
2018-06-28T06:05:36.524Z,29.41
2018-06-28T06:06:36.583Z,29.87
2018-06-28T06:08:29.602Z,29.06
2018-06-28T06:09:29.605Z,28.65
2018-06-28T06:11:22.638Z,28.11
2018-06-28T06:12:22.674Z,28.13
2018-06-28T06:14:15.729Z,27.94
2018-06-28T06:15:15.721Z,28.47
2018-06-28T06:17:08.666Z,28.85
2018-06-28T06:18:08.690Z,29.55
2018-06-28T06:20:01.695Z,30.57
2018-06-28T06:21:01.685Z,30.08
2018-06-28T06:22:54.652Z,30.12
2018-06-28T06:23:54.647Z,30.21
2018-06-28T06:25:47.595Z,31.39
2018-06-28T06:26:47.619Z,31.60
2018-06-28T06:28:40.586Z,32.44
2018-06-28T06:29:40.723Z,32.81
2018-06-28T06:31:33.547Z,33.04
2018-06-28T06:32:33.580Z,33.13
2018-06-28T06:34:27.123Z,32.25
2018-06-28T06:35:27.058Z,32.64
2018-06-28T06:37:20.018Z,33.37
2018-06-28T06:38:20.038Z,33.34
2018-06-28T06:40:13.021Z,33.45
2018-06-28T06:41:13.015Z,32.81
2018-06-28T06:43:06.064Z,31.60
2018-06-28T06:44:06.070Z,31.46
2018-06-28T06:45:59.106Z,31.31
2018-06-28T06:46:59.134Z,30.91
2018-06-28T06:48:52.181Z,30.08
2018-06-28T06:49:52.182Z,29.90
2018-06-28T06:51:45.255Z,30.31
2018-06-28T06:52:45.244Z,30.47
2018-06-28T06:54:38.292Z,31.48
2018-06-28T06:55:38.294Z,31.60
2018-06-28T06:57:31.360Z,32.30
2018-06-28T06:58:31.351Z,32.71
2018-06-28T07:00:24.400Z,32.48
2018-06-28T07:01:24.517Z,32.29
2018-06-28T07:03:17.458Z,31.49
2018-06-28T07:04:17.460Z,30.68
2018-06-28T07:06:10.498Z,30.57
2018-06-28T07:07:10.584Z,30.78
2018-06-28T07:09:03.566Z,31.48
2018-06-28T07:10:03.593Z,31.91
2018-06-28T07:11:56.603Z,32.62
2018-06-28T07:12:56.660Z,32.84
2018-06-28T07:14:49.673Z,32.29
2018-06-28T07:15:49.739Z,31.91
2018-06-28T07:17:42.720Z,32.47
2018-06-28T07:18:42.751Z,32.73
2018-06-28T07:20:35.793Z,32.13
2018-06-28T07:21:35.810Z,31.35
2018-06-28T07:23:28.856Z,30.67
2018-06-28T07:24:28.849Z,30.71
2018-06-28T07:26:22.387Z,30.14
2018-06-28T07:27:22.412Z,29.97
2018-06-28T07:29:15.471Z,30.14
2018-06-28T07:30:15.471Z,30.16
2018-06-28T07:32:08.498Z,30.15
2018-06-28T07:33:08.623Z,30.14
2018-06-28T07:35:01.619Z,30.36
2018-06-28T07:36:01.589Z,30.94
2018-06-28T07:37:54.659Z,31.23
2018-06-28T07:38:54.635Z,30.94
2018-06-28T07:40:47.686Z,30.33
2018-06-28T07:41:47.691Z,30.57
2018-06-28T07:43:40.754Z,31.46
2018-06-28T07:44:40.783Z,31.88
2018-06-28T07:46:33.799Z,32.15
2018-06-28T07:47:33.804Z,32.39
2018-06-28T07:49:26.775Z,32.81
2018-06-28T07:50:26.777Z,32.61
2018-06-28T07:52:19.729Z,32.11
2018-06-28T07:53:19.758Z,31.64
2018-06-28T07:55:12.727Z,31.45
2018-06-28T07:56:12.734Z,31.64
2018-06-28T07:58:05.683Z,30.98
2018-06-28T07:59:05.734Z,30.08
2018-06-28T08:00:58.810Z,29.70
2018-06-28T08:01:58.710Z,29.96
2018-06-28T08:03:51.665Z,30.11
2018-06-28T08:04:51.656Z,30.56
2018-06-28T08:06:44.608Z,31.12
2018-06-28T08:07:44.655Z,30.84
2018-06-28T08:09:37.644Z,30.33
2018-06-28T08:10:37.661Z,29.93
2018-06-28T08:12:30.659Z,29.55
2018-06-28T08:13:30.683Z,29.70
2018-06-28T08:15:23.748Z,29.96
2018-06-28T08:16:23.741Z,29.94
2018-06-28T08:18:16.776Z,29.49
2018-06-28T08:19:16.888Z,29.53
2018-06-28T08:21:09.849Z,30.00
2018-06-28T08:22:09.889Z,30.00
2018-06-28T08:24:02.929Z,29.56
2018-06-28T08:25:02.949Z,29.38
2018-06-28T08:26:55.963Z,29.19
2018-06-28T08:27:55.964Z,29.06
2018-06-28T08:29:49.028Z,29.31
2018-06-28T08:30:49.018Z,29.56
2018-06-28T08:32:42.045Z,29.94
2018-06-28T08:33:42.079Z,30.07
2018-06-28T08:35:35.128Z,30.16
2018-06-28T08:36:35.178Z,30.16
2018-06-28T08:38:28.157Z,30.09
2018-06-28T08:39:28.187Z,30.11
2018-06-28T08:41:21.240Z,30.14
2018-06-28T08:42:21.238Z,29.56
2018-06-28T08:44:14.303Z,28.60
2018-06-28T08:45:14.290Z,28.22
2018-06-28T08:47:07.358Z,27.84
2018-06-28T08:48:07.376Z,27.51
2018-06-28T08:50:00.400Z,27.98
2018-06-28T08:51:00.406Z,28.25
2018-06-28T08:52:53.436Z,28.35
2018-06-28T08:53:53.456Z,28.41
2018-06-28T08:55:46.518Z,28.78
2018-06-28T08:56:46.520Z,29.04
2018-06-28T08:58:39.562Z,28.70
2018-06-28T08:59:39.571Z,28.66
2018-06-28T09:01:32.625Z,28.44
2018-06-28T09:02:32.621Z,28.54
2018-06-28T09:04:25.615Z,28.58
2018-06-28T09:05:25.593Z,28.46
2018-06-28T09:07:18.567Z,28.59
2018-06-28T09:08:18.558Z,28.70
2018-06-28T09:10:11.524Z,28.81
2018-06-28T09:11:11.525Z,28.60
2018-06-28T09:13:04.475Z,28.75
2018-06-28T09:14:04.500Z,28.82
2018-06-28T09:15:57.457Z,29.01
2018-06-28T09:16:57.453Z,29.29
2018-06-28T09:18:50.396Z,28.77
2018-06-28T09:19:50.418Z,28.40
2018-06-28T09:21:43.382Z,28.26
2018-06-28T09:22:43.455Z,28.32
2018-06-28T09:24:36.349Z,28.22
2018-06-28T09:25:36.349Z,27.96
2018-06-28T09:27:29.534Z,27.74
2018-06-28T09:28:29.329Z,27.67
2018-06-28T09:30:22.294Z,27.82
2018-06-28T09:31:22.286Z,27.66
2018-06-28T09:33:15.226Z,27.66
2018-06-28T09:34:15.246Z,27.84
2018-06-28T09:36:08.214Z,27.71
2018-06-28T09:37:08.207Z,27.79
2018-06-28T09:39:01.153Z,27.77
2018-06-28T09:40:01.170Z,27.92
2018-06-28T09:41:54.136Z,28.28
2018-06-28T09:42:54.140Z,28.47
2018-06-28T09:44:47.085Z,28.36
2018-06-28T09:45:47.105Z,28.66
2018-06-28T09:47:40.072Z,28.85
2018-06-28T09:48:40.140Z,28.93
2018-06-28T09:50:33.032Z,28.59
2018-06-28T09:51:33.040Z,28.54
2018-06-28T09:53:25.975Z,28.33
2018-06-28T09:54:25.995Z,28.10
2018-06-28T09:56:18.955Z,27.88
2018-06-28T09:57:18.982Z,27.94
2018-06-28T09:59:11.898Z,27.89
2018-06-28T10:00:11.981Z,28.03
2018-06-28T10:02:05.375Z,28.06
2018-06-28T10:03:05.380Z,28.21
2018-06-28T10:04:58.328Z,27.92
2018-06-28T10:05:58.333Z,28.03
2018-06-28T10:07:51.293Z,27.80
2018-06-28T10:08:51.293Z,27.74
2018-06-28T10:10:44.258Z,27.80
2018-06-28T10:11:44.255Z,27.73
2018-06-28T10:13:37.195Z,27.99
2018-06-28T10:14:37.233Z,27.89
2018-06-28T10:16:30.176Z,28.03
2018-06-28T10:17:30.175Z,28.21
2018-06-28T10:19:23.115Z,28.04
2018-06-28T10:20:23.139Z,28.09
2018-06-28T10:22:16.102Z,28.46
2018-06-28T10:23:16.099Z,28.48
2018-06-28T10:25:09.120Z,28.28
2018-06-28T10:26:09.061Z,28.14
2018-06-28T10:28:02.022Z,28.19
2018-06-28T10:29:02.023Z,28.14
2018-06-28T10:30:54.987Z,28.19
2018-06-28T10:31:54.996Z,28.07
2018-06-28T10:33:47.944Z,28.14
2018-06-28T10:34:47.947Z,28.23
2018-06-28T10:36:40.902Z,28.29
2018-06-28T10:37:40.905Z,28.35
2018-06-28T10:39:33.858Z,28.59
2018-06-28T10:40:33.867Z,28.80
2018-06-28T10:42:26.821Z,29.01
2018-06-28T10:43:26.820Z,28.91
2018-06-28T10:45:19.760Z,28.58
2018-06-28T10:46:19.785Z,28.54
2018-06-28T10:48:12.776Z,28.31
2018-06-28T10:49:12.812Z,28.19
2018-06-28T10:51:05.769Z,28.22
2018-06-28T10:52:05.727Z,28.26
2018-06-28T10:53:58.683Z,28.47
2018-06-28T10:54:58.700Z,28.48
2018-06-28T10:56:51.706Z,28.70
2018-06-28T10:57:51.713Z,28.62
2018-06-28T10:59:44.583Z,28.62
2018-06-28T11:00:44.642Z,28.54
2018-06-28T11:02:37.601Z,28.29
2018-06-28T11:03:37.588Z,28.63
2018-06-28T11:05:30.512Z,28.78
2018-06-28T11:06:30.533Z,28.87
2018-06-28T11:08:23.568Z,28.70
2018-06-28T11:09:23.495Z,28.73
2018-06-28T11:11:16.467Z,28.78
2018-06-28T11:12:16.461Z,28.97
2018-06-28T11:14:09.401Z,29.00
2018-06-28T11:15:09.424Z,28.88
2018-06-28T11:17:02.381Z,29.25
2018-06-28T11:18:02.387Z,29.29
2018-06-28T11:19:55.324Z,29.68
2018-06-28T11:20:55.345Z,29.86
2018-06-28T11:22:48.308Z,29.65
2018-06-28T11:23:48.307Z,29.94
2018-06-28T11:25:41.249Z,30.05
2018-06-28T11:26:41.326Z,29.86
2018-06-28T11:28:34.233Z,30.02
2018-06-28T11:29:34.241Z,29.90
2018-06-28T11:31:27.205Z,30.09
2018-06-28T11:32:27.207Z,30.11
2018-06-28T11:34:20.148Z,30.16
2018-06-28T11:35:20.171Z,30.11
2018-06-28T11:37:13.137Z,29.93
2018-06-28T11:38:13.130Z,29.57
2018-06-28T11:40:06.076Z,28.75
2018-06-28T11:41:06.109Z,28.81
2018-06-28T11:42:59.060Z,28.41
2018-06-28T11:43:59.067Z,28.43
2018-06-28T11:45:52.009Z,28.63
2018-06-28T11:46:52.029Z,28.47
2018-06-28T11:48:44.991Z,28.63
2018-06-28T11:49:45.314Z,28.47
2018-06-28T11:51:37.956Z,28.70
2018-06-28T11:52:37.951Z,28.88
2018-06-28T11:54:30.891Z,29.33
2018-06-28T11:55:30.920Z,29.57
2018-06-28T11:57:23.876Z,29.99
2018-06-28T11:58:23.874Z,30.02
2018-06-28T12:00:16.819Z,30.12
2018-06-28T12:01:16.841Z,30.03
2018-06-28T12:03:09.799Z,29.44
2018-06-28T12:04:09.801Z,29.59
2018-06-28T12:06:02.748Z,29.86
2018-06-28T12:07:02.764Z,29.86
2018-06-28T12:08:55.728Z,30.11
2018-06-28T12:09:55.767Z,29.81
2018-06-28T12:11:48.696Z,28.84
2018-06-28T12:12:48.694Z,28.70
2018-06-28T12:14:41.635Z,28.70
2018-06-28T12:15:41.655Z,28.78
2018-06-28T12:17:34.619Z,28.84
2018-06-28T12:18:34.621Z,28.88
2018-06-28T12:20:27.553Z,28.95
2018-06-28T12:21:27.580Z,28.75
2018-06-28T12:23:20.540Z,28.78
2018-06-28T12:24:20.544Z,28.90
2018-06-28T12:26:13.483Z,28.95
2018-06-28T12:27:13.519Z,29.19
2018-06-28T12:29:06.474Z,29.23
2018-06-28T12:30:06.476Z,29.28
2018-06-28T12:31:59.460Z,29.41
2018-06-28T12:32:59.456Z,29.56
2018-06-28T12:34:52.408Z,29.81
2018-06-28T12:35:52.422Z,30.07
2018-06-28T12:37:45.390Z,30.47
2018-06-28T12:38:45.389Z,30.43
2018-06-28T12:40:38.334Z,30.52
2018-06-28T12:41:38.354Z,30.50
2018-06-28T12:43:31.315Z,30.18
2018-06-28T12:44:31.313Z,29.87
2018-06-28T12:46:24.272Z,29.31
2018-06-28T12:47:24.281Z,29.37
2018-06-28T12:49:17.245Z,29.53
2018-06-28T12:50:17.245Z,29.45
2018-06-28T12:52:10.210Z,29.41
2018-06-28T12:53:10.212Z,29.57
2018-06-28T12:55:03.153Z,29.65
2018-06-28T12:56:03.176Z,29.94
2018-06-28T12:57:56.131Z,30.07
2018-06-28T12:58:56.135Z,30.15
2018-06-28T13:00:49.077Z,30.33
2018-06-28T13:01:49.100Z,30.54
2018-06-28T13:03:42.074Z,30.75
2018-06-28T13:04:42.092Z,30.76
2018-06-28T13:06:35.093Z,30.81
2018-06-28T13:07:35.103Z,30.78
2018-06-28T13:09:28.000Z,30.68
2018-06-28T13:10:27.998Z,30.68
2018-06-28T13:12:20.964Z,30.65
2018-06-28T13:13:20.963Z,30.67
2018-06-28T13:15:13.912Z,30.61
2018-06-28T13:16:13.927Z,30.50
2018-06-28T13:18:06.921Z,30.53
2018-06-28T13:19:06.936Z,30.47
2018-06-28T13:20:59.835Z,30.33
2018-06-28T13:21:59.862Z,30.23
2018-06-28T13:23:52.825Z,30.21
2018-06-28T13:24:52.828Z,30.11
2018-06-28T13:26:45.776Z,30.36
2018-06-28T13:27:45.791Z,30.34
2018-06-28T13:29:38.755Z,30.36
2018-06-28T13:30:38.785Z,30.52
2018-06-28T13:32:31.726Z,30.61
2018-06-28T13:33:31.726Z,30.64
2018-06-28T13:35:24.733Z,30.74
2018-06-28T13:36:24.692Z,30.69
2018-06-28T13:38:17.655Z,30.65
2018-06-28T13:39:17.710Z,30.74
2018-06-28T13:41:10.714Z,30.65
2018-06-28T13:42:10.742Z,30.56
2018-06-28T13:44:03.606Z,30.37
2018-06-28T13:45:03.591Z,30.49
2018-06-28T13:46:56.533Z,30.37
2018-06-28T13:47:56.556Z,30.37
2018-06-28T13:49:49.520Z,30.29
2018-06-28T13:50:49.521Z,30.15
2018-06-28T13:52:42.489Z,30.38
2018-06-28T13:53:42.487Z,30.15
2018-06-28T13:55:35.455Z,30.14
2018-06-28T13:56:35.462Z,30.34
2018-06-28T13:58:28.429Z,30.16
2018-06-28T13:59:28.424Z,30.24
2018-06-28T14:01:21.371Z,30.19
2018-06-28T14:02:21.393Z,30.19
2018-06-28T14:04:14.374Z,30.30
2018-06-28T14:05:14.354Z,30.29
2018-06-28T14:07:07.297Z,30.08
2018-06-28T14:08:07.317Z,29.99
2018-06-28T14:10:00.286Z,30.09
2018-06-28T14:11:00.285Z,30.07
2018-06-28T14:12:53.251Z,30.16
2018-06-28T14:13:53.252Z,30.16
2018-06-28T14:15:46.196Z,30.18
2018-06-28T14:16:46.217Z,30.14
2018-06-28T14:18:39.177Z,29.29
2018-06-28T14:19:39.180Z,29.04
2018-06-28T14:21:32.124Z,29.26
2018-06-28T14:22:32.144Z,29.40
2018-06-28T14:24:25.109Z,29.70
2018-06-28T14:25:25.106Z,29.79
2018-06-28T14:27:18.045Z,29.99
2018-06-28T14:28:18.079Z,29.99
2018-06-28T14:30:11.047Z,30.05
2018-06-28T14:31:11.033Z,30.18
2018-06-28T14:33:03.992Z,29.99
2018-06-28T14:34:04.045Z,30.02
2018-06-28T14:35:56.937Z,30.08
2018-06-28T14:36:56.969Z,29.92
2018-06-28T14:38:49.925Z,29.86
2018-06-28T14:39:49.925Z,29.82
2018-06-28T14:41:42.898Z,30.11
2018-06-28T14:42:42.903Z,30.11
2018-06-28T14:44:35.857Z,30.16
2018-06-28T14:45:35.861Z,30.08
2018-06-28T14:47:28.838Z,29.87
2018-06-28T14:48:28.828Z,29.99
2018-06-28T14:50:21.795Z,30.00
2018-06-28T14:51:21.813Z,29.94
2018-06-28T14:53:14.806Z,30.08
2018-06-28T14:54:14.753Z,30.14
2018-06-28T14:56:07.700Z,30.21
2018-06-28T14:57:07.718Z,30.23
2018-06-28T14:59:00.685Z,30.33
2018-06-28T15:00:00.683Z,30.19
2018-06-28T15:01:53.626Z,30.18
2018-06-28T15:02:53.649Z,30.15
2018-06-28T15:04:46.617Z,30.02
2018-06-28T15:05:46.617Z,29.90
2018-06-28T15:07:39.555Z,29.78
2018-06-28T15:08:39.576Z,29.71
2018-06-28T15:10:32.539Z,29.34
2018-06-28T15:11:32.550Z,29.40
2018-06-28T15:13:25.505Z,29.43
2018-06-28T15:14:25.509Z,29.52
2018-06-28T15:16:18.455Z,29.44
2018-06-28T15:17:18.470Z,29.53
2018-06-28T15:19:11.440Z,29.78
2018-06-28T15:20:11.437Z,29.82
2018-06-28T15:22:04.383Z,29.86
2018-06-28T15:23:04.404Z,29.86
2018-06-28T15:24:57.364Z,30.03
2018-06-28T15:25:57.368Z,30.15
2018-06-28T15:27:50.351Z,30.19
2018-06-28T15:28:50.330Z,30.09
2018-06-28T15:30:43.296Z,30.16
2018-06-28T15:31:43.292Z,30.05
2018-06-28T15:33:36.253Z,29.71
2018-06-28T15:34:36.256Z,29.63
2018-06-28T15:36:29.194Z,29.23
2018-06-28T15:37:29.218Z,29.31
2018-06-28T15:39:22.193Z,29.11
2018-06-28T15:40:22.179Z,29.22
2018-06-28T15:42:15.121Z,29.34
2018-06-28T15:43:15.137Z,29.28
2018-06-28T15:45:08.097Z,29.20
2018-06-28T15:46:08.099Z,29.23
2018-06-28T15:48:01.046Z,29.29
2018-06-28T15:49:01.063Z,29.11
2018-06-28T15:50:54.049Z,28.97
2018-06-28T15:51:54.030Z,29.01
2018-06-28T15:53:46.994Z,29.04
2018-06-28T15:54:46.989Z,29.08
2018-06-28T15:56:39.932Z,29.18
2018-06-28T15:57:39.950Z,29.22
2018-06-28T15:59:32.909Z,29.34
2018-06-28T16:00:32.908Z,29.23
2018-06-28T16:02:25.854Z,29.33
2018-06-28T16:03:25.873Z,29.29
2018-06-28T16:05:18.839Z,29.35
2018-06-28T16:06:18.838Z,29.31
2018-06-28T16:08:11.776Z,29.16
2018-06-28T16:09:11.797Z,29.00
2018-06-28T16:11:04.799Z,28.77
2018-06-28T16:12:04.763Z,28.73
2018-06-28T16:13:57.725Z,28.50
2018-06-28T16:14:57.725Z,28.54
2018-06-28T16:16:50.663Z,28.44
2018-06-28T16:17:50.686Z,28.29
2018-06-28T16:19:43.659Z,28.41
2018-06-28T16:20:43.648Z,28.23
2018-06-28T16:22:36.597Z,28.16
2018-06-28T16:23:36.615Z,28.41
2018-06-28T16:25:29.578Z,28.38
2018-06-28T16:26:29.577Z,28.40
2018-06-28T16:28:22.518Z,28.60
2018-06-28T16:29:22.535Z,28.59
2018-06-28T16:31:15.500Z,28.56
2018-06-28T16:32:15.500Z,28.53
2018-06-28T16:34:08.473Z,28.44
2018-06-28T16:35:08.469Z,28.43
2018-06-28T16:37:01.409Z,28.35
2018-06-28T16:38:01.433Z,28.40
2018-06-28T16:39:54.391Z,28.36
2018-06-28T16:40:54.391Z,28.41
2018-06-28T16:42:47.333Z,28.33
2018-06-28T16:43:47.354Z,28.35
2018-06-28T16:45:40.316Z,28.33
2018-06-28T16:46:40.489Z,28.26
2018-06-28T16:48:33.257Z,28.32
2018-06-28T16:49:33.279Z,28.35
2018-06-28T16:51:26.233Z,28.38
2018-06-28T16:52:26.303Z,28.41
2018-06-28T16:54:19.209Z,28.33
2018-06-28T16:55:19.204Z,28.31
2018-06-28T16:57:12.142Z,28.23
2018-06-28T16:58:12.168Z,28.14
2018-06-28T17:00:05.123Z,28.16
2018-06-28T17:01:05.116Z,28.06
2018-06-28T17:02:58.058Z,28.09
2018-06-28T17:03:58.078Z,28.09
2018-06-28T17:05:51.044Z,27.98
2018-06-28T17:06:51.057Z,27.95
2018-06-28T17:08:43.988Z,27.88
2018-06-28T17:09:44.008Z,27.89
2018-06-28T17:11:36.973Z,27.86
2018-06-28T17:12:36.994Z,27.85
2018-06-28T17:14:29.935Z,27.94
2018-06-28T17:15:29.935Z,28.06
2018-06-28T17:17:22.873Z,27.99
2018-06-28T17:18:22.892Z,28.03
2018-06-28T17:20:15.869Z,27.80
2018-06-28T17:21:15.861Z,27.79
2018-06-28T17:23:08.787Z,27.79
2018-06-28T17:24:08.810Z,27.70
2018-06-28T17:26:01.767Z,27.74
2018-06-28T17:27:01.838Z,27.79
2018-06-28T17:28:54.710Z,27.66
2018-06-28T17:29:54.727Z,27.54
2018-06-28T17:31:47.715Z,27.43
2018-06-28T17:32:47.758Z,27.38
2018-06-28T17:34:40.670Z,27.31
2018-06-28T17:35:40.652Z,27.26
2018-06-28T17:37:33.587Z,27.26
2018-06-28T17:38:33.608Z,27.35
2018-06-28T17:40:26.577Z,27.35
2018-06-28T17:41:26.566Z,27.33
2018-06-28T17:43:19.509Z,27.35
2018-06-28T17:44:19.522Z,27.21
2018-06-28T17:46:12.488Z,27.32
2018-06-28T17:47:12.483Z,27.29
2018-06-28T17:49:05.436Z,27.33
2018-06-28T17:50:05.441Z,27.24
2018-06-28T17:51:58.406Z,27.36
2018-06-28T17:52:58.407Z,27.24
2018-06-28T17:54:51.364Z,27.29
2018-06-28T17:55:51.357Z,27.28
2018-06-28T17:57:44.297Z,27.28
2018-06-28T17:58:44.316Z,27.28
2018-06-28T18:00:37.283Z,27.11
2018-06-28T18:01:37.284Z,27.06
2018-06-28T18:03:30.306Z,27.09
2018-06-28T18:04:30.247Z,27.02
2018-06-28T18:06:23.209Z,26.87
2018-06-28T18:07:23.205Z,26.79
2018-06-28T18:09:16.144Z,26.91
2018-06-28T18:10:16.159Z,26.84
2018-06-28T18:12:09.125Z,26.80
2018-06-28T18:13:09.123Z,26.87
2018-06-28T18:15:02.077Z,26.80
2018-06-28T18:16:02.080Z,26.84
2018-06-28T18:17:55.015Z,26.86
2018-06-28T18:18:55.035Z,26.94
2018-06-28T18:20:48.003Z,26.87
2018-06-28T18:21:47.990Z,26.77
2018-06-28T18:23:40.950Z,26.80
2018-06-28T18:24:40.948Z,26.73
2018-06-28T18:26:33.932Z,26.74
2018-06-28T18:27:33.902Z,26.76
2018-06-28T18:29:26.840Z,26.74
2018-06-28T18:30:26.863Z,26.74
2018-06-28T18:32:19.821Z,26.76
2018-06-28T18:33:19.814Z,26.77
2018-06-28T18:35:12.771Z,26.73
2018-06-28T18:36:12.781Z,26.62
2018-06-28T18:38:05.751Z,26.58
2018-06-28T18:39:05.725Z,26.52
2018-06-28T18:40:58.739Z,26.43
2018-06-28T18:41:58.708Z,26.44
2018-06-28T18:43:51.644Z,26.27
2018-06-28T18:44:51.670Z,26.28
2018-06-28T18:46:44.612Z,26.22
2018-06-28T18:47:44.611Z,26.15
2018-06-28T18:49:37.542Z,26.09
2018-06-28T18:50:37.641Z,26.06
2018-06-28T18:52:30.524Z,26.04
2018-06-28T18:53:30.520Z,26.02
2018-06-28T18:55:23.508Z,26.04
2018-06-28T18:56:23.496Z,26.06
2018-06-28T18:58:16.420Z,25.93
2018-06-28T18:59:16.443Z,25.93
2018-06-28T19:01:09.513Z,25.86
2018-06-28T19:02:09.455Z,25.86
2018-06-28T19:04:02.338Z,25.83
2018-06-28T19:05:02.354Z,25.82
2018-06-28T19:06:55.318Z,25.75
2018-06-28T19:07:55.310Z,25.75
2018-06-28T19:09:48.248Z,25.71
2018-06-28T19:10:48.263Z,25.69
2018-06-28T19:12:41.250Z,25.50
2018-06-28T19:13:41.221Z,25.53
2018-06-28T19:15:34.210Z,25.57
2018-06-28T19:16:34.179Z,25.56
2018-06-28T19:18:27.127Z,25.50
2018-06-28T19:19:27.143Z,25.44
2018-06-28T19:21:20.233Z,25.47
2018-06-28T19:22:20.102Z,25.39
2018-06-28T19:24:13.537Z,25.28
2018-06-28T19:25:13.561Z,25.30
2018-06-28T19:27:06.509Z,25.22
2018-06-28T19:28:06.508Z,25.17
2018-06-28T19:29:59.444Z,25.12
2018-06-28T19:30:59.463Z,25.10
2018-06-28T19:32:52.415Z,25.19
2018-06-28T19:33:52.417Z,25.07
2018-06-28T19:35:45.379Z,25.16
2018-06-28T19:36:45.382Z,25.12
2018-06-28T19:38:38.314Z,25.09
2018-06-28T19:39:38.357Z,25.07
2018-06-28T19:41:31.319Z,25.09
2018-06-28T19:42:31.289Z,25.10
2018-06-28T19:44:24.241Z,24.98
2018-06-28T19:45:24.246Z,25.02
2018-06-28T19:47:17.202Z,25.00
2018-06-28T19:48:17.202Z,25.02
2018-06-28T19:50:10.139Z,24.83
2018-06-28T19:51:10.173Z,24.90
2018-06-28T19:53:03.108Z,24.82
2018-06-28T19:54:03.130Z,24.75
2018-06-28T19:55:56.069Z,24.68
2018-06-28T19:56:56.067Z,24.69
2018-06-28T19:58:49.012Z,24.60
2018-06-28T19:59:49.018Z,24.60
2018-06-28T20:01:41.973Z,24.47
2018-06-28T20:02:41.972Z,24.47
2018-06-28T20:04:34.917Z,24.49
2018-06-28T20:05:34.928Z,24.53
2018-06-28T20:07:27.884Z,24.44
2018-06-28T20:08:27.886Z,24.42
2018-06-28T20:10:20.820Z,24.34
2018-06-28T20:11:20.837Z,24.37
2018-06-28T20:13:13.798Z,24.22
2018-06-28T20:14:13.791Z,24.22
2018-06-28T20:16:06.745Z,24.26
2018-06-28T20:17:06.744Z,24.16
2018-06-28T20:18:59.682Z,24.10
2018-06-28T20:19:59.698Z,24.02
2018-06-28T20:21:52.655Z,24.01
2018-06-28T20:22:52.652Z,24.00
2018-06-28T20:24:45.658Z,23.95
2018-06-28T20:25:45.605Z,23.92
2018-06-28T20:27:38.563Z,23.87
2018-06-28T20:28:38.561Z,23.83
2018-06-28T20:30:31.498Z,23.86
2018-06-28T20:31:31.517Z,23.83
2018-06-28T20:33:24.467Z,23.80
2018-06-28T20:34:24.465Z,23.71
2018-06-28T20:36:17.442Z,23.68
2018-06-28T20:37:17.438Z,23.67
2018-06-28T20:39:10.374Z,23.64
2018-06-28T20:40:10.388Z,23.65
2018-06-28T20:42:03.353Z,23.55
2018-06-28T20:43:03.351Z,23.64
2018-06-28T20:44:56.284Z,23.61
2018-06-28T20:45:56.297Z,23.61
2018-06-28T20:47:49.254Z,23.62
2018-06-28T20:48:49.252Z,23.55
2018-06-28T20:50:42.208Z,23.58
2018-06-28T20:51:42.212Z,23.50
2018-06-28T20:53:35.172Z,23.47
2018-06-28T20:54:35.170Z,23.46
2018-06-28T20:56:28.137Z,23.38